createdAt,value
2022-08-25T00:02:55.561Z,99.90
2022-08-25T00:07:59.729Z,99.90
2022-08-25T00:13:07.723Z,99.90
2022-08-25T00:18:19.930Z,99.90
2022-08-25T00:23:20.710Z,99.90
2022-08-25T00:28:26.477Z,99.90
2022-08-25T00:33:34.665Z,99.90
2022-08-25T00:38:41.485Z,99.90
2022-08-25T00:43:56.827Z,99.90
2022-08-25T00:49:05.168Z,99.90
2022-08-25T00:54:14.798Z,99.90
2022-08-25T00:59:22.909Z,99.90
2022-08-25T01:04:30.026Z,99.90
2022-08-25T01:09:36.796Z,99.90
2022-08-25T01:14:45.115Z,99.90
2022-08-25T01:19:50.689Z,99.90
2022-08-25T01:25:02.362Z,99.90
2022-08-25T01:30:08.627Z,99.90
2022-08-25T01:35:14.300Z,99.90
2022-08-25T01:40:20.885Z,99.90
2022-08-25T01:45:25.636Z,99.90
2022-08-25T01:50:32.948Z,99.90
2022-08-25T01:55:46.110Z,99.90
2022-08-25T02:00:54.813Z,99.90
2022-08-25T02:06:01.321Z,99.90
2022-08-25T02:11:11.399Z,99.90
2022-08-25T02:16:25.069Z,99.90
2022-08-25T02:21:30.256Z,99.90
2022-08-25T02:26:37.257Z,99.90
2022-08-25T02:31:42.550Z,99.90
2022-08-25T02:36:48.455Z,99.90
2022-08-25T02:41:54.219Z,99.90
2022-08-25T02:46:59.922Z,99.90
2022-08-25T02:52:05.356Z,99.90
2022-08-25T02:57:11.776Z,99.90
2022-08-25T03:02:17.704Z,99.90
2022-08-25T03:07:23.642Z,99.90
2022-08-25T03:12:31.143Z,99.90
2022-08-25T03:17:37.392Z,99.90
2022-08-25T03:22:44.733Z,99.90
2022-08-25T03:27:49.917Z,99.90
2022-08-25T03:32:55.051Z,99.90
2022-08-25T03:38:01.715Z,99.90
2022-08-25T03:43:06.533Z,99.90
2022-08-25T03:48:14.198Z,99.90
2022-08-25T03:53:20.743Z,99.90
2022-08-25T03:58:25.980Z,99.90
2022-08-25T04:03:31.296Z,99.90
2022-08-25T04:08:37.007Z,99.90
2022-08-25T04:13:43.484Z,99.90
2022-08-25T04:18:49.613Z,99.90
2022-08-25T04:23:55.160Z,99.90
2022-08-25T04:29:03.684Z,99.90
2022-08-25T04:34:30.555Z,99.90
2022-08-25T04:39:17.644Z,99.90
2022-08-25T04:44:23.559Z,99.90
2022-08-25T04:49:29.820Z,99.90
2022-08-25T04:54:37.097Z,99.90
2022-08-25T04:59:43.081Z,99.90
2022-08-25T05:04:48.016Z,99.90
2022-08-25T05:09:54.033Z,99.90
2022-08-25T05:15:01.143Z,99.90
2022-08-25T05:20:06.862Z,99.90
2022-08-25T05:25:14.719Z,99.90
2022-08-25T05:30:20.456Z,99.90
2022-08-25T05:35:26.254Z,99.90
2022-08-25T05:40:32.210Z,99.90
2022-08-25T05:45:37.345Z,99.90
2022-08-25T05:50:43.406Z,99.90
2022-08-25T05:55:49.474Z,99.90
2022-08-25T06:00:54.070Z,99.90
2022-08-25T06:06:08.029Z,99.90
2022-08-25T06:11:14.903Z,99.90
2022-08-25T06:16:20.639Z,99.90
2022-08-25T06:21:25.749Z,99.90
2022-08-25T06:26:30.904Z,99.90
2022-08-25T06:31:37.058Z,99.90
2022-08-25T06:36:42.452Z,99.90
2022-08-25T06:41:49.315Z,99.90
2022-08-25T06:46:55.420Z,99.90
2022-08-25T06:52:00.834Z,99.90
2022-08-25T06:57:11.225Z,99.90
2022-08-25T07:02:22.104Z,99.90
2022-08-25T07:07:24.409Z,99.90
2022-08-25T07:12:29.475Z,99.90
2022-08-25T07:17:34.889Z,99.90
2022-08-25T07:22:41.502Z,99.90
2022-08-25T07:27:46.806Z,99.90
2022-08-25T07:32:55.014Z,99.90
2022-08-25T07:37:59.812Z,99.90
2022-08-25T07:43:08.934Z,99.90
2022-08-25T07:48:14.170Z,99.90
2022-08-25T07:53:21.142Z,99.90
2022-08-25T07:58:28.911Z,99.90
2022-08-25T08:03:50.696Z,99.90
2022-08-25T08:08:44.809Z,99.90
2022-08-25T08:13:51.593Z,99.90
2022-08-25T08:18:58.909Z,99.90
2022-08-25T08:24:10.664Z,99.90
2022-08-25T08:29:12.739Z,99.90
2022-08-25T08:34:18.889Z,99.90
2022-08-25T08:39:24.698Z,99.90
2022-08-25T08:44:34.160Z,99.90
2022-08-25T08:49:58.427Z,99.90
2022-08-25T08:55:07.426Z,99.90
2022-08-25T09:00:13.032Z,99.90
2022-08-25T09:05:21.137Z,99.90
2022-08-25T09:10:29.231Z,99.90
2022-08-25T09:16:01.563Z,99.90
2022-08-25T09:21:18.898Z,99.90
2022-08-25T09:26:39.513Z,99.90
2022-08-25T09:31:46.556Z,99.90
2022-08-25T09:36:53.477Z,99.90
2022-08-25T09:42:01.076Z,99.90
2022-08-25T09:47:09.753Z,99.90
2022-08-25T09:52:23.837Z,99.90
2022-08-25T09:57:37.302Z,99.90
2022-08-25T10:02:44.711Z,99.90
2022-08-25T10:07:53.348Z,99.90
2022-08-25T10:13:00.819Z,66.70
2022-08-25T10:18:26.853Z,1.00
2022-08-25T10:23:36.770Z,89.40
2022-08-25T10:29:14.201Z,79.80
2022-08-25T10:34:25.132Z,97.60
2022-08-25T10:39:56.046Z,99.30
2022-08-25T10:45:31.021Z,99.90
2022-08-25T10:50:46.049Z,99.90
2022-08-25T10:56:12.796Z,99.90
2022-08-25T11:01:46.723Z,99.90
2022-08-25T11:07:02.215Z,95.70
2022-08-25T11:12:11.161Z,63.40
2022-08-25T11:17:28.276Z,74.00
2022-08-25T11:22:49.167Z,89.00
2022-08-25T11:28:01.092Z,85.50
2022-08-25T11:33:08.255Z,78.50
2022-08-25T11:38:17.518Z,56.00
2022-08-25T11:43:45.864Z,64.40
2022-08-25T11:49:09.345Z,85.50
2022-08-25T11:54:41.802Z,99.90
2022-08-25T11:59:57.220Z,94.00
2022-08-25T12:05:04.442Z,80.00
2022-08-25T12:10:15.305Z,78.90
2022-08-25T12:15:44.912Z,93.90
2022-08-25T12:21:00.058Z,90.10
2022-08-25T12:26:42.696Z,81.20
2022-08-25T12:31:53.053Z,79.40
2022-08-25T12:37:01.360Z,80.40
2022-08-25T12:42:11.935Z,1.00
2022-08-25T12:47:31.247Z,1.00
2022-08-25T12:52:38.982Z,1.00
2022-08-25T12:57:54.628Z,6.30
2022-08-25T13:03:23.864Z,20.80
2022-08-25T13:08:46.985Z,27.20
2022-08-25T13:14:02.861Z,12.60
2022-08-25T13:19:10.105Z,1.00
2022-08-25T13:24:24.297Z,1.00
2022-08-25T13:29:36.954Z,30.30
2022-08-25T13:34:43.299Z,19.90
2022-08-25T13:39:56.769Z,32.70
2022-08-25T13:44:56.966Z,1.00
2022-08-25T13:50:22.978Z,1.00
2022-08-25T13:55:38.321Z,1.00
2022-08-25T14:00:43.313Z,1.00
2022-08-25T14:05:51.634Z,1.00
2022-08-25T14:11:15.979Z,1.00
2022-08-25T14:16:25.522Z,1.00
2022-08-25T14:21:33.461Z,1.00
2022-08-25T14:26:39.719Z,1.00
2022-08-25T14:31:47.924Z,1.00
2022-08-25T14:36:53.672Z,1.00
2022-08-25T14:41:59.612Z,1.00
2022-08-25T14:47:07.137Z,1.00
2022-08-25T14:52:26.711Z,1.00
2022-08-25T14:57:31.778Z,1.00
2022-08-25T15:02:40.587Z,1.00
2022-08-25T15:08:04.636Z,1.00
2022-08-25T15:13:12.249Z,1.00
2022-08-25T15:18:19.447Z,1.00
2022-08-25T15:23:25.728Z,1.00
2022-08-25T15:28:30.747Z,1.00
2022-08-25T15:33:35.588Z,1.00
2022-08-25T15:38:43.864Z,1.00
2022-08-25T15:43:49.309Z,1.00
2022-08-25T15:48:59.568Z,1.00
2022-08-25T15:54:05.166Z,1.00
2022-08-25T15:59:10.901Z,1.00
2022-08-25T16:04:16.419Z,1.00
2022-08-25T16:09:25.540Z,1.00
2022-08-25T16:14:30.435Z,1.00
2022-08-25T16:19:38.109Z,1.00
2022-08-25T16:24:45.159Z,1.00
2022-08-25T16:29:50.053Z,1.00
2022-08-25T16:34:55.776Z,1.00
2022-08-25T16:40:01.847Z,1.00
2022-08-25T16:45:08.102Z,1.00
2022-08-25T16:50:14.198Z,1.00
2022-08-25T16:55:19.917Z,1.00
2022-08-25T17:00:28.525Z,1.00
2022-08-25T17:05:36.465Z,1.00
2022-08-25T17:10:44.290Z,1.00
2022-08-25T17:15:52.427Z,1.00
2022-08-25T17:21:06.789Z,1.00
2022-08-25T17:26:17.138Z,1.00
2022-08-25T17:31:24.084Z,1.00
2022-08-25T17:36:29.947Z,26.60
2022-08-25T17:41:37.819Z,19.60
2022-08-25T17:46:47.190Z,1.00
2022-08-25T17:51:51.274Z,13.10
2022-08-25T17:56:57.134Z,99.90
2022-08-25T18:02:02.297Z,99.90
2022-08-25T18:07:06.689Z,99.90
2022-08-25T18:12:14.180Z,99.90
2022-08-25T18:17:22.937Z,99.90
2022-08-25T18:22:28.665Z,99.90
2022-08-25T18:27:35.135Z,99.90
2022-08-25T18:32:40.531Z,99.90
2022-08-25T18:38:04.432Z,99.90
2022-08-25T18:43:15.173Z,99.90
2022-08-25T18:48:26.588Z,99.90
2022-08-25T18:53:50.746Z,99.90
2022-08-25T18:58:41.648Z,99.90
2022-08-25T19:03:47.662Z,99.90
2022-08-25T19:08:53.920Z,99.90
2022-08-25T19:13:59.863Z,99.90
2022-08-25T19:19:08.354Z,99.90
2022-08-25T19:24:15.150Z,99.90
2022-08-25T19:29:20.785Z,99.90
2022-08-25T19:34:30.838Z,99.90
2022-08-25T19:39:39.885Z,99.90
2022-08-25T19:44:45.327Z,99.90
2022-08-25T19:49:50.657Z,99.90
2022-08-25T19:54:56.708Z,99.90
2022-08-25T20:00:02.390Z,99.90
2022-08-25T20:05:09.038Z,99.90
2022-08-25T20:10:14.807Z,99.90
2022-08-25T20:15:21.182Z,99.90
2022-08-25T20:20:32.578Z,99.90
2022-08-25T20:25:36.876Z,99.90
2022-08-25T20:30:45.513Z,99.90
2022-08-25T20:35:53.111Z,99.90
2022-08-25T20:40:59.834Z,99.90
2022-08-25T20:46:07.196Z,99.90
2022-08-25T20:51:14.173Z,99.90
2022-08-25T20:56:21.706Z,99.90
2022-08-25T21:01:29.698Z,99.90
2022-08-25T21:06:36.596Z,99.90
2022-08-25T21:11:42.383Z,99.90
2022-08-25T21:16:50.312Z,99.90
2022-08-25T21:21:59.760Z,99.90
2022-08-25T21:27:04.563Z,99.90
2022-08-25T21:32:10.319Z,99.90
2022-08-25T21:37:16.270Z,99.90
2022-08-25T21:42:24.829Z,99.90
2022-08-25T21:47:31.265Z,99.90
2022-08-25T21:52:37.201Z,99.90
2022-08-25T21:57:42.491Z,99.90
2022-08-25T22:02:49.647Z,99.90
2022-08-25T22:07:55.795Z,99.90
2022-08-25T22:13:02.640Z,99.90
2022-08-25T22:18:08.367Z,99.90
2022-08-25T22:23:20.169Z,99.90
2022-08-25T22:28:24.894Z,99.90
2022-08-25T22:33:31.415Z,99.90
2022-08-25T22:38:37.077Z,99.90
2022-08-25T22:43:43.457Z,99.90
2022-08-25T22:48:51.512Z,99.90
2022-08-25T22:53:57.752Z,99.90
2022-08-25T22:59:04.116Z,99.90
2022-08-25T23:04:09.471Z,99.90
2022-08-25T23:09:16.287Z,99.90
2022-08-25T23:14:21.869Z,99.90
2022-08-25T23:19:28.091Z,99.90
2022-08-25T23:24:33.895Z,99.90
2022-08-25T23:29:41.454Z,99.90
2022-08-25T23:34:47.899Z,99.90
2022-08-25T23:39:53.851Z,99.90
2022-08-25T23:45:00.437Z,99.90
2022-08-25T23:50:07.942Z,99.90
2022-08-25T23:55:14.183Z,99.90
